sensor_id;sensor_type;location;lat;lon;timestamp;pressure;altitude;pressure_sealevel;temperature;humidity
68654;BME280;55636;51.108;13.622;2022-08-06T00:01:12;100858.63;;;18.66;54.62
68654;BME280;55636;51.108;13.622;2022-08-06T00:02:15;100864.22;;;18.66;54.66
68654;BME280;55636;51.108;13.622;2022-08-06T00:03:23;100869.25;;;18.64;54.54
68654;BME280;55636;51.108;13.622;2022-08-06T00:04:27;100863.97;;;18.62;54.84
68654;BME280;55636;51.108;13.622;2022-08-06T00:05:29;100860.34;;;18.61;54.27
68654;BME280;55636;51.108;13.622;2022-08-06T00:06:37;100865.94;;;18.61;54.09
68654;BME280;55636;51.108;13.622;2022-08-06T00:07:40;100860.97;;;18.58;54.20
68654;BME280;55636;51.108;13.622;2022-08-06T00:08:49;100865.72;;;18.58;54.47
68654;BME280;55636;51.108;13.622;2022-08-06T00:09:53;100868.00;;;18.56;54.38
68654;BME280;55636;51.108;13.622;2022-08-06T00:11:02;100861.88;;;18.54;54.07
68654;BME280;55636;51.108;13.622;2022-08-06T00:12:07;100866.09;;;18.51;54.12
68654;BME280;55636;51.108;13.622;2022-08-06T00:13:11;100867.78;;;18.52;54.45
68654;BME280;55636;51.108;13.622;2022-08-06T00:14:15;100865.56;;;18.49;54.49
68654;BME280;55636;51.108;13.622;2022-08-06T00:15:27;100856.34;;;18.49;54.47
68654;BME280;55636;51.108;13.622;2022-08-06T00:16:49;100859.47;;;18.47;54.29
68654;BME280;55636;51.108;13.622;2022-08-06T00:17:56;100868.66;;;18.48;54.68
68654;BME280;55636;51.108;13.622;2022-08-06T00:18:59;100868.97;;;18.46;54.76
68654;BME280;55636;51.108;13.622;2022-08-06T00:20:08;100874.03;;;18.44;55.01
68654;BME280;55636;51.108;13.622;2022-08-06T00:21:11;100877.13;;;18.42;55.33
68654;BME280;55636;51.108;13.622;2022-08-06T00:22:33;100874.34;;;18.42;54.80
68654;BME280;55636;51.108;13.622;2022-08-06T00:23:38;100871.84;;;18.41;55.43
68654;BME280;55636;51.108;13.622;2022-08-06T00:24:57;100863.44;;;18.41;55.40
68654;BME280;55636;51.108;13.622;2022-08-06T00:26:00;100865.44;;;18.40;55.20
68654;BME280;55636;51.108;13.622;2022-08-06T00:27:02;100868.22;;;18.40;55.48
68654;BME280;55636;51.108;13.622;2022-08-06T00:28:07;100863.75;;;18.39;55.38
68654;BME280;55636;51.108;13.622;2022-08-06T00:29:12;100864.06;;;18.38;55.16
68654;BME280;55636;51.108;13.622;2022-08-06T00:30:27;100855.97;;;18.36;55.54
68654;BME280;55636;51.108;13.622;2022-08-06T00:31:30;100857.94;;;18.36;55.48
68654;BME280;55636;51.108;13.622;2022-08-06T00:32:33;100857.94;;;18.36;55.85
68654;BME280;55636;51.108;13.622;2022-08-06T00:33:36;100852.34;;;18.36;55.44
68654;BME280;55636;51.108;13.622;2022-08-06T00:34:52;100856.25;;;18.35;55.56
68654;BME280;55636;51.108;13.622;2022-08-06T00:35:57;100860.19;;;18.34;55.29
68654;BME280;55636;51.108;13.622;2022-08-06T00:37:00;100862.13;;;18.33;55.62
68654;BME280;55636;51.108;13.622;2022-08-06T00:38:03;100862.97;;;18.34;55.49
68654;BME280;55636;51.108;13.622;2022-08-06T00:39:11;100859.34;;;18.33;55.82
68654;BME280;55636;51.108;13.622;2022-08-06T00:40:14;100851.25;;;18.32;55.80
68654;BME280;55636;51.108;13.622;2022-08-06T00:41:25;100842.03;;;18.31;55.57
68654;BME280;55636;51.108;13.622;2022-08-06T00:42:43;100836.44;;;18.31;55.89
68654;BME280;55636;51.108;13.622;2022-08-06T00:43:45;100838.41;;;18.31;56.07
68654;BME280;55636;51.108;13.622;2022-08-06T00:44:49;100819.94;;;18.29;56.10
68654;BME280;55636;51.108;13.622;2022-08-06T00:45:51;100828.06;;;18.31;55.96
68654;BME280;55636;51.108;13.622;2022-08-06T00:46:56;100829.19;;;18.30;55.90
68654;BME280;55636;51.108;13.622;2022-08-06T00:47:59;100822.75;;;18.29;55.94
68654;BME280;55636;51.108;13.622;2022-08-06T00:49:08;100823.06;;;18.28;55.73
68654;BME280;55636;51.108;13.622;2022-08-06T00:50:13;100823.06;;;18.28;55.87
68654;BME280;55636;51.108;13.622;2022-08-06T00:51:18;100817.47;;;18.28;55.93
68654;BME280;55636;51.108;13.622;2022-08-06T00:52:22;100812.72;;;18.28;55.50
68654;BME280;55636;51.108;13.622;2022-08-06T00:53:28;100810.75;;;18.29;55.71
68654;BME280;55636;51.108;13.622;2022-08-06T00:54:35;100797.38;;;18.26;56.03
68654;BME280;55636;51.108;13.622;2022-08-06T00:55:40;100791.47;;;18.27;55.84
68654;BME280;55636;51.108;13.622;2022-08-06T00:57:03;100797.06;;;18.27;56.01
68654;BME280;55636;51.108;13.622;2022-08-06T00:58:13;100807.41;;;18.27;55.96
68654;BME280;55636;51.108;13.622;2022-08-06T00:59:16;100829.78;;;18.27;56.15
68654;BME280;55636;51.108;13.622;2022-08-06T01:00:19;100840.97;;;18.27;56.32
68654;BME280;55636;51.108;13.622;2022-08-06T01:01:31;100848.84;;;18.25;56.36
68654;BME280;55636;51.108;13.622;2022-08-06T01:02:52;100848.84;;;18.25;56.83
68654;BME280;55636;51.108;13.622;2022-08-06T01:03:55;100848.84;;;18.25;56.99
68654;BME280;55636;51.108;13.622;2022-08-06T01:04:58;100850.50;;;18.26;56.61
68654;BME280;55636;51.108;13.622;2022-08-06T01:06:20;100849.66;;;18.25;57.17
68654;BME280;55636;51.108;13.622;2022-08-06T01:07:42;100860.00;;;18.25;57.07
68654;BME280;55636;51.108;13.622;2022-08-06T01:08:53;100865.59;;;18.25;57.15
68654;BME280;55636;51.108;13.622;2022-08-06T01:09:55;100869.53;;;18.24;57.12
68654;BME280;55636;51.108;13.622;2022-08-06T01:10:59;100868.72;;;18.23;57.27
68654;BME280;55636;51.108;13.622;2022-08-06T01:12:04;100873.16;;;18.24;57.42
68654;BME280;55636;51.108;13.622;2022-08-06T01:13:13;100863.94;;;18.24;57.40
68654;BME280;55636;51.108;13.622;2022-08-06T01:14:27;100858.03;;;18.25;57.16
68654;BME280;55636;51.108;13.622;2022-08-06T01:15:47;100867.56;;;18.24;57.48
68654;BME280;55636;51.108;13.622;2022-08-06T01:17:36;100873.16;;;18.24;57.37
68654;BME280;55636;51.108;13.622;2022-08-06T01:20:41;100878.47;;;18.26;57.05
68654;BME280;55636;51.108;13.622;2022-08-06T01:22:17;100884.88;;;18.26;57.38
68654;BME280;55636;51.108;13.622;2022-08-06T01:23:43;100882.06;;;18.26;57.58
68654;BME280;55636;51.108;13.622;2022-08-06T01:26:37;100890.47;;;18.26;57.25
68654;BME280;55636;51.108;13.622;2022-08-06T01:27:52;100893.25;;;18.26;57.63
68654;BME280;55636;51.108;13.622;2022-08-06T01:30:44;100884.06;;;18.26;57.70
68654;BME280;55636;51.108;13.622;2022-08-06T01:32:06;100890.47;;;18.26;57.36
68654;BME280;55636;51.108;13.622;2022-08-06T01:33:19;100896.38;;;18.25;57.51
68654;BME280;55636;51.108;13.622;2022-08-06T01:34:36;100904.44;;;18.26;57.59
68654;BME280;55636;51.108;13.622;2022-08-06T01:35:42;100909.22;;;18.26;57.68
68654;BME280;55636;51.108;13.622;2022-08-06T01:37:00;100906.44;;;18.26;57.33
68654;BME280;55636;51.108;13.622;2022-08-06T01:38:12;100898.03;;;18.26;57.50
68654;BME280;55636;51.108;13.622;2022-08-06T01:39:20;100908.91;;;18.27;57.66
68654;BME280;55636;51.108;13.622;2022-08-06T01:40:46;100906.44;;;18.26;57.53
68654;BME280;55636;51.108;13.622;2022-08-06T01:41:53;100901.97;;;18.25;57.78
68654;BME280;55636;51.108;13.622;2022-08-06T01:43:00;100907.56;;;18.25;57.48
68654;BME280;55636;51.108;13.622;2022-08-06T01:44:23;100904.75;;;18.25;57.74
68654;BME280;55636;51.108;13.622;2022-08-06T01:45:32;100904.44;;;18.26;57.56
68654;BME280;55636;51.108;13.622;2022-08-06T01:46:57;100906.44;;;18.26;57.41
68654;BME280;55636;51.108;13.622;2022-08-06T01:48:03;100899.97;;;18.25;57.50
68654;BME280;55636;51.108;13.622;2022-08-06T01:49:08;100899.97;;;18.25;57.61
68654;BME280;55636;51.108;13.622;2022-08-06T01:50:35;100909.50;;;18.24;57.61
68654;BME280;55636;51.108;13.622;2022-08-06T01:51:39;100900.28;;;18.24;57.68
68654;BME280;55636;51.108;13.622;2022-08-06T01:53:06;100900.28;;;18.24;57.68
68654;BME280;55636;51.108;13.622;2022-08-06T01:54:18;100897.78;;;18.22;57.64
68654;BME280;55636;51.108;13.622;2022-08-06T01:55:21;100903.38;;;18.22;57.61
68654;BME280;55636;51.108;13.622;2022-08-06T01:56:48;100894.47;;;18.20;57.33
68654;BME280;55636;51.108;13.622;2022-08-06T01:58:01;100900.34;;;18.19;57.41
68654;BME280;55636;51.108;13.622;2022-08-06T01:59:24;100904.28;;;18.18;57.27
68654;BME280;55636;51.108;13.622;2022-08-06T02:00:28;100907.38;;;18.16;57.03
68654;BME280;55636;51.108;13.622;2022-08-06T02:01:33;100903.75;;;18.16;56.84
68654;BME280;55636;51.108;13.622;2022-08-06T02:02:58;100905.19;;;18.13;56.78
68654;BME280;55636;51.108;13.622;2022-08-06T02:04:02;100908.28;;;18.11;56.55
68654;BME280;55636;51.108;13.622;2022-08-06T02:05:07;100908.88;;;18.08;56.66
68654;BME280;55636;51.108;13.622;2022-08-06T02:06:14;100920.34;;;18.07;56.46
68654;BME280;55636;51.108;13.622;2022-08-06T02:07:29;100922.31;;;18.06;56.55
68654;BME280;55636;51.108;13.622;2022-08-06T02:08:53;100917.63;;;18.02;56.50
68654;BME280;55636;51.108;13.622;2022-08-06T02:09:57;100918.75;;;18.01;56.40
68654;BME280;55636;51.108;13.622;2022-08-06T02:11:03;100922.66;;;18.00;56.35
68654;BME280;55636;51.108;13.622;2022-08-06T02:12:26;100923.25;;;17.97;56.17
68654;BME280;55636;51.108;13.622;2022-08-06T02:13:33;100927.47;;;17.94;56.04
68654;BME280;55636;51.108;13.622;2022-08-06T02:14:51;100931.41;;;17.93;56.21
68654;BME280;55636;51.108;13.622;2022-08-06T02:15:55;100934.81;;;17.90;56.05
68654;BME280;55636;51.108;13.622;2022-08-06T02:17:03;100932.31;;;17.88;56.03
68654;BME280;55636;51.108;13.622;2022-08-06T02:18:17;100939.31;;;17.86;55.82
68654;BME280;55636;51.108;13.622;2022-08-06T02:19:41;100940.75;;;17.83;55.94
68654;BME280;55636;51.108;13.622;2022-08-06T02:21:08;100938.53;;;17.80;55.87
68654;BME280;55636;51.108;13.622;2022-08-06T02:22:35;100943.59;;;17.78;55.83
68654;BME280;55636;51.108;13.622;2022-08-06T02:23:44;100941.63;;;17.78;55.50
68654;BME280;55636;51.108;13.622;2022-08-06T02:24:47;100931.03;;;17.75;55.79
68654;BME280;55636;51.108;13.622;2022-08-06T02:25:53;100931.63;;;17.72;55.70
68654;BME280;55636;51.108;13.622;2022-08-06T02:26:58;100937.50;;;17.71;55.39
68654;BME280;55636;51.108;13.622;2022-08-06T02:28:06;100928.59;;;17.69;55.19
68654;BME280;55636;51.108;13.622;2022-08-06T02:29:14;100936.44;;;17.67;54.85
68654;BME280;55636;51.108;13.622;2022-08-06T02:30:20;100935.06;;;17.64;55.00
68654;BME280;55636;51.108;13.622;2022-08-06T02:31:35;100942.63;;;17.64;54.52
68654;BME280;55636;51.108;13.622;2022-08-06T02:32:51;100946.84;;;17.61;54.81
68654;BME280;55636;51.108;13.622;2022-08-06T02:33:53;100941.00;;;17.57;54.40
68654;BME280;55636;51.108;13.622;2022-08-06T02:35:15;100942.72;;;17.53;54.23
68654;BME280;55636;51.108;13.622;2022-08-06T02:36:25;100938.56;;;17.51;54.43
68654;BME280;55636;51.108;13.622;2022-08-06T02:37:44;100952.78;;;17.49;54.07
68654;BME280;55636;51.108;13.622;2022-08-06T02:39:11;100947.75;;;17.46;54.12
68654;BME280;55636;51.108;13.622;2022-08-06T02:40:22;100949.19;;;17.43;53.89
68654;BME280;55636;51.108;13.622;2022-08-06T02:41:36;100953.94;;;17.43;53.88
68654;BME280;55636;51.108;13.622;2022-08-06T02:44:10;100951.50;;;17.36;53.77
68654;BME280;55636;51.108;13.622;2022-08-06T02:45:19;100957.66;;;17.33;54.00
68654;BME280;55636;51.108;13.622;2022-08-06T02:46:27;100957.13;;;17.31;53.67
68654;BME280;55636;51.108;13.622;2022-08-06T02:47:39;100959.34;;;17.29;53.94
68654;BME280;55636;51.108;13.622;2022-08-06T02:49:08;100950.72;;;17.25;53.66
68654;BME280;55636;51.108;13.622;2022-08-06T02:50:17;100952.19;;;17.23;53.65
68654;BME280;55636;51.108;13.622;2022-08-06T02:51:28;100946.34;;;17.19;54.01
68654;BME280;55636;51.108;13.622;2022-08-06T02:52:59;100954.44;;;17.16;54.02
68654;BME280;55636;51.108;13.622;2022-08-06T02:54:07;100950.28;;;17.13;53.68
68654;BME280;55636;51.108;13.622;2022-08-06T02:55:18;100963.69;;;17.11;53.56
68654;BME280;55636;51.108;13.622;2022-08-06T02:56:22;100966.78;;;17.09;53.63
68654;BME280;55636;51.108;13.622;2022-08-06T02:57:33;100969.03;;;17.07;53.93
68654;BME280;55636;51.108;13.622;2022-08-06T02:58:53;100980.47;;;17.06;54.12
68654;BME280;55636;51.108;13.622;2022-08-06T03:00:04;100982.72;;;17.04;54.11
68654;BME280;55636;51.108;13.622;2022-08-06T03:01:15;100973.78;;;17.02;54.02
68654;BME280;55636;51.108;13.622;2022-08-06T03:02:26;100989.47;;;16.97;54.17
68654;BME280;55636;51.108;13.622;2022-08-06T03:03:32;100982.19;;;16.96;54.01
68654;BME280;55636;51.108;13.622;2022-08-06T03:04:39;100990.88;;;16.95;53.84
68654;BME280;55636;51.108;13.622;2022-08-06T03:05:56;100994.25;;;16.92;53.53
68654;BME280;55636;51.108;13.622;2022-08-06T03:07:05;100991.75;;;16.90;53.59
68654;BME280;55636;51.108;13.622;2022-08-06T03:08:29;100995.38;;;16.86;53.14
68654;BME280;55636;51.108;13.622;2022-08-06T03:09:35;100988.13;;;16.85;53.06
68654;BME280;55636;51.108;13.622;2022-08-06T03:10:52;100985.94;;;16.82;52.65
68654;BME280;55636;51.108;13.622;2022-08-06T03:11:55;100990.94;;;16.79;52.73
68654;BME280;55636;51.108;13.622;2022-08-06T03:13:01;100999.63;;;16.78;52.47
68654;BME280;55636;51.108;13.622;2022-08-06T03:14:14;101002.13;;;16.74;52.51
68654;BME280;55636;51.108;13.622;2022-08-06T03:15:38;100999.63;;;16.73;52.57
68654;BME280;55636;51.108;13.622;2022-08-06T03:17:02;101001.03;;;16.70;52.80
68654;BME280;55636;51.108;13.622;2022-08-06T03:18:05;100995.75;;;16.69;52.73
68654;BME280;55636;51.108;13.622;2022-08-06T03:19:08;101002.75;;;16.66;52.70
68654;BME280;55636;51.108;13.622;2022-08-06T03:20:34;101008.91;;;16.63;52.16
68654;BME280;55636;51.108;13.622;2022-08-06T03:21:41;101012.81;;;16.62;52.29
68654;BME280;55636;51.108;13.622;2022-08-06T03:22:58;101015.00;;;16.60;52.23
68654;BME280;55636;51.108;13.622;2022-08-06T03:24:04;101019.75;;;16.59;52.13
68654;BME280;55636;51.108;13.622;2022-08-06T03:25:08;101019.19;;;16.57;52.21
68654;BME280;55636;51.108;13.622;2022-08-06T03:26:12;101025.06;;;16.56;51.92
68654;BME280;55636;51.108;13.622;2022-08-06T03:27:20;101029.81;;;16.55;51.78
68654;BME280;55636;51.108;13.622;2022-08-06T03:28:24;101027.31;;;16.54;51.98
68654;BME280;55636;51.108;13.622;2022-08-06T03:29:29;101028.44;;;16.53;51.80
68654;BME280;55636;51.108;13.622;2022-08-06T03:30:35;101029.00;;;16.50;51.75
68654;BME280;55636;51.108;13.622;2022-08-06T03:31:40;101032.91;;;16.49;51.35
68654;BME280;55636;51.108;13.622;2022-08-06T03:32:45;101027.59;;;16.47;51.26
68654;BME280;55636;51.108;13.622;2022-08-06T03:33:54;101037.13;;;16.46;51.03
68654;BME280;55636;51.108;13.622;2022-08-06T03:34:57;101039.34;;;16.44;51.17
68654;BME280;55636;51.108;13.622;2022-08-06T03:36:02;101037.13;;;16.41;51.08
68654;BME280;55636;51.108;13.622;2022-08-06T03:37:07;101039.34;;;16.39;51.03
68654;BME280;55636;51.108;13.622;2022-08-06T03:38:15;101042.72;;;16.36;50.91
68654;BME280;55636;51.108;13.622;2022-08-06T03:39:19;101037.41;;;16.34;50.83
68654;BME280;55636;51.108;13.622;2022-08-06T03:40:24;101049.13;;;16.31;50.82
68654;BME280;55636;51.108;13.622;2022-08-06T03:41:29;101044.66;;;16.30;50.83
68654;BME280;55636;51.108;13.622;2022-08-06T03:42:41;101056.97;;;16.29;50.74
68654;BME280;55636;51.108;13.622;2022-08-06T03:43:45;101054.72;;;16.26;50.42
68654;BME280;55636;51.108;13.622;2022-08-06T03:45:05;101064.19;;;16.25;50.64
68654;BME280;55636;51.108;13.622;2022-08-06T03:46:41;101065.88;;;16.21;50.42
68654;BME280;55636;51.108;13.622;2022-08-06T03:47:51;101063.38;;;16.19;50.31
68654;BME280;55636;51.108;13.622;2022-08-06T03:49:12;101069.53;;;16.16;50.43
68654;BME280;55636;51.108;13.622;2022-08-06T03:50:33;101077.59;;;16.12;50.46
68654;BME280;55636;51.108;13.622;2022-08-06T03:51:37;101078.16;;;16.09;50.37
68654;BME280;55636;51.108;13.622;2022-08-06T03:52:59;101081.22;;;16.08;50.29
68654;BME280;55636;51.108;13.622;2022-08-06T03:54:06;101089.03;;;16.06;50.38
68654;BME280;55636;51.108;13.622;2022-08-06T03:55:14;101096.84;;;16.04;50.30
68654;BME280;55636;51.108;13.622;2022-08-06T03:56:26;101092.66;;;16.01;50.21
68654;BME280;55636;51.108;13.622;2022-08-06T03:57:34;101091.84;;;16.01;50.36
68654;BME280;55636;51.108;13.622;2022-08-06T03:58:50;101097.69;;;15.99;50.28
68654;BME280;55636;51.108;13.622;2022-08-06T03:59:53;101106.31;;;15.97;50.22
68654;BME280;55636;51.108;13.622;2022-08-06T04:01:16;101100.47;;;15.94;50.31
68654;BME280;55636;51.108;13.622;2022-08-06T04:02:21;101102.97;;;15.90;50.02
68654;BME280;55636;51.108;13.622;2022-08-06T04:03:38;101097.69;;;15.89;50.44
68654;BME280;55636;51.108;13.622;2022-08-06T04:04:42;101092.66;;;15.86;50.14
68654;BME280;55636;51.108;13.622;2022-08-06T04:05:45;101099.38;;;15.85;50.34
68654;BME280;55636;51.108;13.622;2022-08-06T04:06:49;101101.59;;;15.83;50.12
68654;BME280;55636;51.108;13.622;2022-08-06T04:07:58;101097.41;;;15.80;50.09
68654;BME280;55636;51.108;13.622;2022-08-06T04:09:06;101100.47;;;15.78;50.39
68654;BME280;55636;51.108;13.622;2022-08-06T04:10:15;101107.97;;;15.78;50.24
68654;BME280;55636;51.108;13.622;2022-08-06T04:11:24;101105.47;;;15.76;50.49
68654;BME280;55636;51.108;13.622;2022-08-06T04:12:46;101102.41;;;15.73;50.29
68654;BME280;55636;51.108;13.622;2022-08-06T04:14:09;101116.31;;;15.73;50.53
68654;BME280;55636;51.108;13.622;2022-08-06T04:15:13;101101.84;;;15.71;50.42
68654;BME280;55636;51.108;13.622;2022-08-06T04:16:16;101111.31;;;15.70;50.35
68654;BME280;55636;51.108;13.622;2022-08-06T04:17:36;101103.22;;;15.68;50.45
68654;BME280;55636;51.108;13.622;2022-08-06T04:18:45;101112.41;;;15.69;50.38
68654;BME280;55636;51.108;13.622;2022-08-06T04:19:53;101109.31;;;15.65;50.37
68654;BME280;55636;51.108;13.622;2022-08-06T04:21:06;101118.81;;;15.64;50.46
68654;BME280;55636;51.108;13.622;2022-08-06T04:22:22;101109.59;;;15.63;50.55
68654;BME280;55636;51.108;13.622;2022-08-06T04:23:44;101115.44;;;15.62;50.53
68654;BME280;55636;51.108;13.622;2022-08-06T04:24:47;101116.28;;;15.62;50.17
68654;BME280;55636;51.108;13.622;2022-08-06T04:25:53;101119.34;;;15.61;50.20
68654;BME280;55636;51.108;13.622;2022-08-06T04:27:00;101126.88;;;15.60;50.51
68654;BME280;55636;51.108;13.622;2022-08-06T04:28:12;101127.16;;;15.59;50.54
68654;BME280;55636;51.108;13.622;2022-08-06T04:29:18;101129.94;;;15.59;50.33
68654;BME280;55636;51.108;13.622;2022-08-06T04:30:24;101122.97;;;15.56;50.50
68654;BME280;55636;51.108;13.622;2022-08-06T04:31:32;101136.03;;;15.56;50.42
68654;BME280;55636;51.108;13.622;2022-08-06T04:32:55;101133.53;;;15.54;50.54
68654;BME280;55636;51.108;13.622;2022-08-06T04:34:02;101140.78;;;15.55;50.46
68654;BME280;55636;51.108;13.622;2022-08-06T04:35:13;101138.28;;;15.54;50.49
68654;BME280;55636;51.108;13.622;2022-08-06T04:36:36;101142.19;;;15.53;50.66
68654;BME280;55636;51.108;13.622;2022-08-06T04:37:41;101143.84;;;15.54;50.85
68654;BME280;55636;51.108;13.622;2022-08-06T04:38:45;101149.41;;;15.54;50.60
68654;BME280;55636;51.108;13.622;2022-08-06T04:39:53;101151.34;;;15.53;50.90
68654;BME280;55636;51.108;13.622;2022-08-06T04:40:56;101146.91;;;15.52;50.90
68654;BME280;55636;51.108;13.622;2022-08-06T04:41:59;101147.75;;;15.53;50.89
68654;BME280;55636;51.108;13.622;2022-08-06T04:43:08;101151.63;;;15.52;50.82
68654;BME280;55636;51.108;13.622;2022-08-06T04:44:11;101148.84;;;15.52;50.95
68654;BME280;55636;51.108;13.622;2022-08-06T04:45:15;101157.47;;;15.50;51.13
68654;BME280;55636;51.108;13.622;2022-08-06T04:46:38;101148.84;;;15.52;50.90
68654;BME280;55636;51.108;13.622;2022-08-06T04:47:41;101160.84;;;15.52;50.95
68654;BME280;55636;51.108;13.622;2022-08-06T04:48:48;101149.94;;;15.51;51.10
68654;BME280;55636;51.108;13.622;2022-08-06T04:49:58;101154.69;;;15.50;51.00
68654;BME280;55636;51.108;13.622;2022-08-06T04:51:08;101154.69;;;15.50;51.20
68654;BME280;55636;51.108;13.622;2022-08-06T04:52:20;101159.16;;;15.51;51.11
68654;BME280;55636;51.108;13.622;2022-08-06T04:53:40;101154.41;;;15.52;51.02
68654;BME280;55636;51.108;13.622;2022-08-06T04:54:58;101158.88;;;15.53;51.14
68654;BME280;55636;51.108;13.622;2022-08-06T04:56:00;101160.56;;;15.54;51.20
68654;BME280;55636;51.108;13.622;2022-08-06T04:57:05;101163.06;;;15.55;51.23
68654;BME280;55636;51.108;13.622;2022-08-06T04:58:27;101166.41;;;15.57;51.25
68654;BME280;55636;51.108;13.622;2022-08-06T04:59:34;101172.25;;;15.61;51.38
68654;BME280;55636;51.108;13.622;2022-08-06T05:00:52;101179.22;;;15.63;51.25
68654;BME280;55636;51.108;13.622;2022-08-06T05:02:05;101178.69;;;15.67;51.46
68654;BME280;55636;51.108;13.622;2022-08-06T05:03:09;101173.41;;;15.70;51.50
68654;BME280;55636;51.108;13.622;2022-08-06T05:04:12;101176.50;;;15.74;51.39
68654;BME280;55636;51.108;13.622;2022-08-06T05:05:19;101172.91;;;15.78;51.36
68654;BME280;55636;51.108;13.622;2022-08-06T05:07:50;101183.50;;;15.92;51.47
68654;BME280;55636;51.108;13.622;2022-08-06T05:09:04;101178.50;;;15.99;51.33
68654;BME280;55636;51.108;13.622;2022-08-06T05:10:31;101184.06;;;16.09;51.29
68654;BME280;55636;51.108;13.622;2022-08-06T05:11:41;101178.47;;;16.14;51.08
68654;BME280;55636;51.108;13.622;2022-08-06T05:13:00;101175.69;;;16.25;50.86
68654;BME280;55636;51.108;13.622;2022-08-06T05:14:13;101178.75;;;16.34;51.23
68654;BME280;55636;51.108;13.622;2022-08-06T05:15:32;101181.84;;;16.42;51.05
68654;BME280;55636;51.108;13.622;2022-08-06T05:16:44;101173.44;;;16.53;50.80
68654;BME280;55636;51.108;13.622;2022-08-06T05:18:08;101187.66;;;16.67;50.39
68654;BME280;55636;51.108;13.622;2022-08-06T05:19:35;101186.25;;;16.79;50.36
68654;BME280;55636;51.108;13.622;2022-08-06T05:20:40;101187.34;;;16.89;49.79
68654;BME280;55636;51.108;13.622;2022-08-06T05:21:47;101188.44;;;16.98;49.57
68654;BME280;55636;51.108;13.622;2022-08-06T05:23:20;101192.56;;;17.11;49.24
68654;BME280;55636;51.108;13.622;2022-08-06T05:24:25;101189.75;;;17.21;48.68
68654;BME280;55636;51.108;13.622;2022-08-06T05:25:49;101192.50;;;17.32;48.36
68654;BME280;55636;51.108;13.622;2022-08-06T05:26:57;101196.66;;;17.39;48.02
68654;BME280;55636;51.108;13.622;2022-08-06T05:28:01;101196.03;;;17.47;47.60
68654;BME280;55636;51.108;13.622;2022-08-06T05:29:18;101191.84;;;17.55;47.60
68654;BME280;55636;51.108;13.622;2022-08-06T05:30:24;101198.78;;;17.63;47.11
68654;BME280;55636;51.108;13.622;2022-08-06T05:31:35;101196.53;;;17.70;47.25
68654;BME280;55636;51.108;13.622;2022-08-06T05:32:46;101202.34;;;17.79;46.87
68654;BME280;55636;51.108;13.622;2022-08-06T05:33:54;101203.69;;;17.87;46.72
68654;BME280;55636;51.108;13.622;2022-08-06T05:34:57;101201.69;;;17.92;46.35
68654;BME280;55636;51.108;13.622;2022-08-06T05:36:01;101204.69;;;18.01;46.41
68654;BME280;55636;51.108;13.622;2022-08-06T05:37:06;101206.03;;;18.09;46.59
68654;BME280;55636;51.108;13.622;2022-08-06T05:38:10;101201.75;;;18.17;46.40
68654;BME280;55636;51.108;13.622;2022-08-06T05:39:13;101205.63;;;18.26;46.40
68654;BME280;55636;51.108;13.622;2022-08-06T05:40:35;101212.00;;;18.37;46.14
68654;BME280;55636;51.108;13.622;2022-08-06T05:41:57;101210.22;;;18.46;45.70
68654;BME280;55636;51.108;13.622;2022-08-06T05:43:01;101209.84;;;18.58;45.83
68654;BME280;55636;51.108;13.622;2022-08-06T05:44:04;101209.19;;;18.66;45.43
68654;BME280;55636;51.108;13.622;2022-08-06T05:45:11;101210.25;;;18.75;44.97
68654;BME280;55636;51.108;13.622;2022-08-06T05:46:26;101213.75;;;18.86;44.63
68654;BME280;55636;51.108;13.622;2022-08-06T05:47:33;101217.88;;;18.94;44.56
68654;BME280;55636;51.108;13.622;2022-08-06T05:49:07;101214.66;;;19.06;44.28
68654;BME280;55636;51.108;13.622;2022-08-06T05:50:32;101215.97;;;19.14;44.08
68654;BME280;55636;51.108;13.622;2022-08-06T05:52:11;101212.22;;;19.23;43.91
68654;BME280;55636;51.108;13.622;2022-08-06T05:53:24;101211.03;;;19.30;43.36
68654;BME280;55636;51.108;13.622;2022-08-06T05:55:02;101221.31;;;19.39;43.26
68654;BME280;55636;51.108;13.622;2022-08-06T05:56:17;101221.22;;;19.45;43.06
68654;BME280;55636;51.108;13.622;2022-08-06T05:58:57;101220.50;;;19.58;43.11
68654;BME280;55636;51.108;13.622;2022-08-06T06:00:06;101224.03;;;19.64;42.89
68654;BME280;55636;51.108;13.622;2022-08-06T06:01:33;101220.03;;;19.70;42.48
68654;BME280;55636;51.108;13.622;2022-08-06T06:02:46;101223.59;;;19.75;42.33
68654;BME280;55636;51.108;13.622;2022-08-06T06:03:51;101220.22;;;19.79;42.37
68654;BME280;55636;51.108;13.622;2022-08-06T06:04:57;101215.97;;;19.81;42.15
68654;BME280;55636;51.108;13.622;2022-08-06T06:06:21;101225.75;;;19.84;41.86
68654;BME280;55636;51.108;13.622;2022-08-06T06:07:25;101218.69;;;19.86;41.55
68654;BME280;55636;51.108;13.622;2022-08-06T06:08:47;101219.22;;;19.88;41.67
68654;BME280;55636;51.108;13.622;2022-08-06T06:10:02;101223.69;;;19.89;41.91
68654;BME280;55636;51.108;13.622;2022-08-06T06:11:07;101229.28;;;19.89;41.82
68654;BME280;55636;51.108;13.622;2022-08-06T06:12:11;101230.41;;;19.88;41.70
68654;BME280;55636;51.108;13.622;2022-08-06T06:13:22;101238.00;;;19.88;41.74
68654;BME280;55636;51.108;13.622;2022-08-06T06:14:42;101231.03;;;19.85;41.55
68654;BME280;55636;51.108;13.622;2022-08-06T06:15:49;101231.34;;;19.84;41.52
68654;BME280;55636;51.108;13.622;2022-08-06T06:22:41;101242.22;;;19.66;41.79
68654;BME280;55636;51.108;13.622;2022-08-06T06:24:00;101241.97;;;19.63;41.82